createdAt,value
2018-08-16T00:00:07.169Z,87.30
2018-08-16T00:00:38.197Z,87.30
2018-08-16T00:01:09.226Z,87.30
2018-08-16T00:01:40.257Z,87.30
2018-08-16T00:02:11.305Z,87.40
2018-08-16T00:02:42.330Z,87.40
2018-08-16T00:03:13.357Z,87.40
2018-08-16T00:03:44.389Z,87.40
2018-08-16T00:04:15.435Z,87.40
2018-08-16T00:04:46.473Z,87.40
2018-08-16T00:05:17.507Z,87.50
2018-08-16T00:05:48.541Z,87.40
2018-08-16T00:06:19.570Z,87.50
2018-08-16T00:06:50.607Z,87.50
2018-08-16T00:07:21.641Z,87.50
2018-08-16T00:07:52.677Z,87.50
2018-08-16T00:08:23.713Z,87.50
2018-08-16T00:08:54.745Z,87.50
2018-08-16T00:09:25.795Z,87.50
2018-08-16T00:09:56.826Z,87.40
2018-08-16T00:10:27.849Z,87.50
2018-08-16T00:10:58.877Z,87.50
2018-08-16T00:11:29.900Z,87.50
2018-08-16T00:12:00.929Z,87.50
2018-08-16T00:12:31.957Z,87.50
2018-08-16T00:13:02.993Z,87.70
2018-08-16T00:13:34.053Z,87.60
2018-08-16T00:14:05.105Z,87.50
2018-08-16T00:14:36.152Z,87.50
2018-08-16T00:15:07.178Z,87.40
2018-08-16T00:15:38.201Z,87.50
2018-08-16T00:16:09.231Z,87.40
2018-08-16T00:16:40.265Z,87.50
2018-08-16T00:17:11.297Z,87.50
2018-08-16T00:17:42.329Z,87.50
2018-08-16T00:18:13.357Z,87.40
2018-08-16T00:18:44.389Z,87.40
2018-08-16T00:19:15.418Z,87.40
2018-08-16T00:19:46.457Z,87.40
2018-08-16T00:20:17.489Z,87.40
2018-08-16T00:20:48.525Z,87.40
2018-08-16T00:21:19.558Z,87.30
2018-08-16T00:21:50.585Z,87.30
2018-08-16T00:22:21.617Z,87.20
2018-08-16T00:22:52.666Z,87.20
2018-08-16T00:23:23.689Z,87.20
2018-08-16T00:23:54.712Z,87.20
2018-08-16T00:24:25.762Z,87.20
2018-08-16T00:24:56.789Z,87.10
2018-08-16T00:25:27.822Z,87.10
2018-08-16T00:25:58.853Z,87.10
2018-08-16T00:26:29.886Z,87.10
2018-08-16T00:27:00.912Z,87.10
2018-08-16T00:27:31.950Z,87.10
2018-08-16T00:28:02.975Z,87.10
2018-08-16T00:28:34.004Z,87.10
2018-08-16T00:29:05.036Z,87.10
2018-08-16T00:29:36.083Z,87.40
2018-08-16T00:30:07.109Z,88.00
2018-08-16T00:30:38.145Z,87.10
2018-08-16T00:31:09.182Z,87.10
2018-08-16T00:31:40.217Z,87.10
2018-08-16T00:32:11.248Z,87.10
2018-08-16T00:32:42.282Z,87.10
2018-08-16T00:33:13.318Z,87.10
2018-08-16T00:33:44.341Z,87.10
2018-08-16T00:34:15.385Z,87.10
2018-08-16T00:34:46.421Z,87.10
2018-08-16T00:35:17.450Z,87.10
2018-08-16T00:35:48.485Z,87.10
2018-08-16T00:36:19.513Z,87.10
2018-08-16T00:36:50.546Z,87.10
2018-08-16T00:37:21.573Z,87.10
2018-08-16T00:37:52.596Z,88.10
2018-08-16T00:38:23.632Z,88.10
2018-08-16T00:38:54.661Z,87.80
2018-08-16T00:39:25.693Z,87.40
2018-08-16T00:39:56.737Z,87.40
2018-08-16T00:40:27.767Z,88.10
2018-08-16T00:40:58.796Z,87.40
2018-08-16T00:41:29.832Z,88.10
2018-08-16T00:42:00.869Z,87.40
2018-08-16T00:42:31.897Z,87.30
2018-08-16T00:43:02.924Z,87.20
2018-08-16T00:43:33.964Z,87.20
2018-08-16T00:44:05.006Z,87.20
2018-08-16T00:44:36.048Z,87.20
2018-08-16T00:45:07.081Z,87.20
2018-08-16T00:45:38.114Z,87.20
2018-08-16T00:46:09.144Z,87.20
2018-08-16T00:46:40.165Z,87.20
2018-08-16T00:47:11.197Z,87.20
2018-08-16T00:47:42.225Z,87.20
2018-08-16T00:48:13.257Z,87.40
2018-08-16T00:48:44.284Z,87.20
2018-08-16T00:49:15.326Z,87.30
2018-08-16T00:49:46.361Z,87.20
2018-08-16T00:50:17.396Z,87.20
2018-08-16T00:50:48.430Z,87.20
2018-08-16T00:51:19.465Z,87.20
2018-08-16T00:51:50.492Z,87.20
2018-08-16T00:52:21.533Z,87.20
2018-08-16T00:52:52.568Z,87.20
2018-08-16T00:53:23.592Z,87.10
2018-08-16T00:53:54.625Z,87.10
2018-08-16T00:54:25.657Z,87.10
2018-08-16T00:54:56.692Z,87.10
2018-08-16T00:55:27.724Z,87.10
2018-08-16T00:55:58.753Z,87.10
2018-08-16T00:56:29.781Z,87.10
2018-08-16T00:57:00.805Z,87.10
2018-08-16T00:57:31.837Z,87.00
2018-08-16T00:58:02.861Z,87.10
2018-08-16T00:58:33.894Z,87.00
2018-08-16T00:59:04.920Z,87.00
2018-08-16T00:59:35.954Z,87.00
2018-08-16T01:00:06.985Z,87.00
2018-08-16T01:00:38.012Z,87.40
2018-08-16T01:01:09.045Z,87.00
2018-08-16T01:01:40.087Z,87.00
2018-08-16T01:02:11.125Z,87.00
2018-08-16T01:02:42.153Z,87.00
2018-08-16T01:03:13.193Z,87.00
2018-08-16T01:03:44.225Z,86.90
2018-08-16T01:04:15.257Z,87.00
2018-08-16T01:04:46.301Z,86.90
2018-08-16T01:05:17.334Z,86.90
2018-08-16T01:05:48.361Z,86.80
2018-08-16T01:06:19.409Z,86.90
2018-08-16T01:06:50.445Z,86.90
2018-08-16T01:07:21.477Z,87.70
2018-08-16T01:07:52.514Z,87.00
2018-08-16T01:08:23.537Z,87.00
2018-08-16T01:08:54.577Z,87.00
2018-08-16T01:09:25.601Z,87.00
2018-08-16T01:09:56.640Z,86.90
2018-08-16T01:10:27.681Z,87.00
2018-08-16T01:10:58.713Z,87.00
2018-08-16T01:11:29.745Z,87.00
2018-08-16T01:12:00.777Z,87.50
2018-08-16T01:12:31.804Z,87.10
2018-08-16T01:13:02.841Z,87.10
2018-08-16T01:13:33.872Z,87.10
2018-08-16T01:14:04.905Z,87.10
2018-08-16T01:14:35.954Z,87.10
2018-08-16T01:15:06.980Z,87.20
2018-08-16T01:15:38.013Z,87.20
2018-08-16T01:16:09.045Z,87.30
2018-08-16T01:16:40.073Z,87.40
2018-08-16T01:17:11.110Z,87.40
2018-08-16T01:17:42.141Z,87.30
2018-08-16T01:18:13.176Z,87.30
2018-08-16T01:18:44.214Z,87.20
2018-08-16T01:19:15.249Z,87.20
2018-08-16T01:19:46.297Z,87.20
2018-08-16T01:20:17.350Z,87.10
2018-08-16T01:20:48.365Z,87.10
2018-08-16T01:21:19.398Z,87.10
2018-08-16T01:21:50.429Z,87.00
2018-08-16T01:22:21.457Z,87.00
2018-08-16T01:22:52.486Z,87.00
2018-08-16T01:23:23.533Z,87.50
2018-08-16T01:23:54.573Z,87.20
2018-08-16T01:24:25.605Z,86.80
2018-08-16T01:24:56.636Z,86.90
2018-08-16T01:25:27.669Z,87.00
2018-08-16T01:25:58.705Z,87.00
2018-08-16T01:26:29.737Z,87.00
2018-08-16T01:27:00.773Z,86.90
2018-08-16T01:27:31.800Z,87.00
2018-08-16T01:28:02.838Z,87.00
2018-08-16T01:28:33.875Z,87.00
2018-08-16T01:29:04.903Z,86.90
2018-08-16T01:29:35.950Z,87.00
2018-08-16T01:30:06.991Z,87.00
2018-08-16T01:30:38.021Z,87.00
2018-08-16T01:31:09.050Z,87.00
2018-08-16T01:31:40.076Z,87.00
2018-08-16T01:32:11.116Z,86.90
